地図

経路データ

SID SEASON NUMBER BASIN SUBBASIN NAME ISO_TIME NATURE LAT LON WMO_WIND WMO_PRES WMO_AGENCY TRACK_TYPE DIST2LAND LANDFALL IFLAG USA_AGENCY USA_ATCF_ID USA_LAT USA_LON USA_RECORD USA_STATUS USA_WIND USA_PRES USA_SSHS USA_R34_NE USA_R34_SE USA_R34_SW USA_R34_NW USA_R50_NE USA_R50_SE USA_R50_SW USA_R50_NW USA_R64_NE USA_R64_SE USA_R64_SW USA_R64_NW USA_POCI USA_ROCI USA_RMW USA_EYE TOKYO_LAT TOKYO_LON TOKYO_GRADE TOKYO_WIND TOKYO_PRES TOKYO_R50_DIR TOKYO_R50_LONG TOKYO_R50_SHORT TOKYO_R30_DIR TOKYO_R30_LONG TOKYO_R30_SHORT TOKYO_LAND CMA_LAT CMA_LON CMA_CAT CMA_WIND CMA_PRES HKO_LAT HKO_LON HKO_CAT HKO_WIND HKO_PRES NEWDELHI_LAT NEWDELHI_LON NEWDELHI_GRADE NEWDELHI_WIND NEWDELHI_PRES NEWDELHI_CI NEWDELHI_DP NEWDELHI_POCI REUNION_LAT REUNION_LON REUNION_TYPE REUNION_WIND REUNION_PRES REUNION_TNUM REUNION_CI REUNION_RMW REUNION_R34_NE REUNION_R34_SE REUNION_R34_SW REUNION_R34_NW REUNION_R50_NE REUNION_R50_SE REUNION_R50_SW REUNION_R50_NW REUNION_R64_NE REUNION_R64_SE REUNION_R64_SW REUNION_R64_NW BOM_LAT BOM_LON BOM_TYPE BOM_WIND BOM_PRES BOM_TNUM BOM_CI BOM_RMW BOM_R34_NE BOM_R34_SE BOM_R34_SW BOM_R34_NW BOM_R50_NE BOM_R50_SE BOM_R50_SW BOM_R50_NW BOM_R64_NE BOM_R64_SE BOM_R64_SW BOM_R64_NW BOM_ROCI BOM_POCI BOM_EYE BOM_POS_METHOD BOM_PRES_METHOD NADI_LAT NADI_LON NADI_CAT NADI_WIND NADI_PRES WELLINGTON_LAT WELLINGTON_LON WELLINGTON_WIND WELLINGTON_PRES DS824_LAT DS824_LON DS824_STAGE DS824_WIND DS824_PRES TD9636_LAT TD9636_LON TD9636_STAGE TD9636_WIND TD9636_PRES TD9635_LAT TD9635_LON TD9635_WIND TD9635_PRES TD9635_ROCI NEUMANN_LAT NEUMANN_LON NEUMANN_CLASS NEUMANN_WIND NEUMANN_PRES MLC_LAT MLC_LON MLC_CLASS MLC_WIND MLC_PRES USA_GUST BOM_GUST BOM_GUST_PER REUNION_GUST REUNION_GUST_PER USA_SEAHGT USA_SEARAD_NE USA_SEARAD_SE USA_SEARAD_SW USA_SEARAD_NW STORM_SPEED STORM_DIR
1989241N13265 1989 92 EP MM MANUEL 1989-08-28 18:00:00 TS 12.8000 -95.2000 25 1009 hurdat_epa main 342 328 O_________O___ hurdat_epa EP161989 12.8000 -95.2000 TD 25 1009 -1 12.8000 -95.2000 1 25 11 275
1989241N13265 1989 92 EP MM MANUEL 1989-08-28 21:00:00 TS 12.8520 -95.7661 main 314 304 P_________P___ EP161989 12.8528 -95.7649 TD 27 1008 -1 12.8495 -95.7695 1 27 11 275
1989241N13265 1989 92 EP MM MANUEL 1989-08-29 00:00:00 TS 12.9000 -96.3000 30 1008 hurdat_epa main 304 302 O_________O___ hurdat_epa EP161989 12.9000 -96.3000 TD 30 1008 -1 12.9000 -96.3000 1 30 10 275
1989241N13265 1989 92 EP MM MANUEL 1989-08-29 03:00:00 TS 12.9454 -96.7756 main 303 291 P_________P___ EP161989 12.9424 -96.7800 TD 30 1007 -1 12.9546 -96.7624 1 30 9 277
1989241N13265 1989 92 EP MM MANUEL 1989-08-29 06:00:00 TS 13.0047 -97.1921 30 1007 hurdat_epa main 298 292 O_________P___ hurdat_epa EP161989 13.0000 -97.2000 TD 30 1007 -1 13.0188 -97.1684 1 30 8 281
1989241N13265 1989 92 EP MM MANUEL 1989-08-29 09:00:00 TS 13.0940 -97.5644 main 299 298 P_________P___ EP161989 13.0924 -97.5725 TD 30 1006 -1 13.0986 -97.5403 1 30 7 286
1989241N13265 1989 92 EP MM MANUEL 1989-08-29 12:00:00 TS 13.2000 -97.9000 30 1006 hurdat_epa main 303 302 O_________O___ hurdat_epa EP161989 13.2000 -97.9000 TD 30 1006 -1 13.2000 -97.9000 1 30 7 288
1989241N13265 1989 92 EP MM MANUEL 1989-08-29 15:00:00 TS 13.2906 -98.2044 main 305 298 P_________P___ EP161989 13.2848 -98.1852 TD 32 1005 -1 13.3077 -98.2623 1 31 6 289
1989241N13265 1989 92 EP MM MANUEL 1989-08-29 18:00:00 TS 13.4098 -98.5302 35 1005 hurdat_epa main 300 292 O_________P___ hurdat_epa EP161989 13.4000 -98.5000 TS 35 1005 0 13.4394 -98.6207 1 32 8 292
1989241N13265 1989 92 EP MM MANUEL 1989-08-29 21:00:00 TS 13.5835 -98.9385 main 293 289 P_________P___ EP161989 13.5775 -98.9200 TS 35 1004 0 13.6014 -98.9937 1 33 9 295
1989241N13265 1989 92 EP MM MANUEL 1989-08-30 00:00:00 TS 13.8000 -99.4000 35 1003 hurdat_epa main 292 283 O_________O___ hurdat_epa EP161989 13.8000 -99.4000 TS 35 1003 0 13.8000 -99.4000 2 35 10 296
1989241N13265 1989 92 EP MM MANUEL 1989-08-30 03:00:00 TS 14.0350 -99.8845 main 292 276 P_________P___ EP161989 14.0349 -99.8926 TS 35 1002 0 14.0350 -99.8600 2 36 11 298
1989241N13265 1989 92 EP MM MANUEL 1989-08-30 06:00:00 TS 14.3012 -100.389 35 1002 hurdat_epa main 278 262 O_________P___ hurdat_epa EP161989 14.3000 -100.400 TS 35 1002 0 14.3049 -100.355 2 37 11 300
1989241N13265 1989 92 EP MM MANUEL 1989-08-30 09:00:00 TS 14.5936 -100.893 main 267 260 P_________P___ EP161989 14.5924 -100.900 TS 37 1002 0 14.5974 -100.873 2 38 12 301
1989241N13265 1989 92 EP MM MANUEL 1989-08-30 12:00:00 TS 14.9000 -101.400 40 1002 hurdat_epa main 264 246 O_________O___ hurdat_epa EP161989 14.9000 -101.400 TS 40 1002 0 14.9000 -101.400 2 40 11 302
1989241N13265 1989 92 EP MM MANUEL 1989-08-30 15:00:00 TS 15.1970 -101.900 main 250 242 P_________P___ EP161989 15.1998 -101.893 TS 40 1002 0 15.1885 -101.922 2 40 11 301
1989241N13265 1989 92 EP MM MANUEL 1989-08-30 18:00:00 TS 15.4962 -102.413 40 1002 hurdat_epa main 244 241 O_________P___ hurdat_epa EP161989 15.5000 -102.400 TS 40 1002 0 15.4847 -102.451 2 40 12 301
1989241N13265 1989 92 EP MM MANUEL 1989-08-30 21:00:00 TS 15.7971 -102.952 main 246 229 P_________P___ EP161989 15.7999 -102.943 TS 40 1002 0 15.7885 -102.979 2 40 12 300
1989241N13265 1989 92 EP MM MANUEL 1989-08-31 00:00:00 TS 16.1000 -103.500 40 1002 hurdat_epa main 232 218 O_________O___ hurdat_epa EP161989 16.1000 -103.500 TS 40 1002 0 16.1000 -103.500 2 40 12 299
1989241N13265 1989 92 EP MM MANUEL 1989-08-31 03:00:00 TS 16.3892 -104.062 main 221 208 P_________P___ EP161989 16.3925 -104.065 TS 37 1002 0 16.3795 -104.052 2 38 12 299
1989241N13265 1989 92 EP MM MANUEL 1989-08-31 06:00:00 TS 16.6930 -104.597 35 1003 hurdat_epa main 213 210 O_________P___ hurdat_epa EP161989 16.7000 -104.600 TS 35 1003 0 16.6718 -104.589 2 37 12 303
1989241N13265 1989 92 EP MM MANUEL 1989-08-31 09:00:00 TS 17.0157 -105.086 main 223 214 P_________P___ EP161989 17.0199 -105.088 TS 35 1004 0 17.0031 -105.082 2 36 11 309
1989241N13265 1989 92 EP MM MANUEL 1989-08-31 12:00:00 TS 17.4000 -105.500 35 1005 hurdat_epa main 214 188 O_________O___ hurdat_epa EP161989 17.4000 -105.500 TS 35 1005 0 17.4000 -105.500 2 35 11 321
1989241N13265 1989 92 EP MM MANUEL 1989-08-31 15:00:00 TS 17.8736 -105.825 main 179 160 P_________P___ EP161989 17.8725 -105.825 TS 30 1006 -1 17.8770 -105.826 2 30 12 330
1989241N13265 1989 92 EP MM MANUEL 1989-08-31 18:00:00 TS 18.4000 -106.100 25 1008 hurdat_epa main 160 O_________O___ hurdat_epa EP161989 18.4000 -106.100 TD 25 1008 -1 18.4000 -106.100 1 25 12 334

IBTrACS Databaseについて

本データベースは、米国NOAAが公開する1842年以降の世界の熱帯低気圧のベストトラックデータアーカイブInternational Best Track Archive for Climate Stewardship (IBTrACS)を、ウェブで閲覧しやすい形式に変換したものです。

最終更新日:2021-10-25